Meteorología y climatología de Navarra
Datos de la estación - Meteo Navarra

Estación de Aguilar de Codés GN

Altitud 736 m.


Datos desde el 07/12/2018 hasta el 08/12/2018 en horario solar
Los datos son PROVISIONALES

Anterior Página 1 de 1 Siguiente Descargar: Formato para Excel 2000 o superior   Formato csv   Formato para OpenOffice Calc
Fecha Temperatura Humedad relativa Radiación global Insolación Precipitación Velocidad viento 10 m Velocidad viento 10 m Dirección viento 10 m
ºC % W/m² s l/m² m/s km/h º
07/12/2018 0:00 6.4 86 0.0 0 0.0 3.0 10.9 316
07/12/2018 0:10 6.4 86 0.0 0 0.0 2.5 8.8 310
07/12/2018 0:20 6.3 87 0.0 0 0.0 2.5 9.0 309
07/12/2018 0:30 6.2 87 0.0 0 0.0 2.6 9.4 308
07/12/2018 0:40 5.9 87 0.0 0 0.0 2.6 9.5 309
07/12/2018 0:50 5.7 88 0.0 0 0.0 2.2 8.0 308
07/12/2018 1:00 5.6 88 0.0 0 0.0 2.9 10.5 312
07/12/2018 1:10 5.4 89 0.0 0 0.0 3.0 10.8 317
07/12/2018 1:20 5.2 89 0.0 0 0.0 3.2 11.4 315
07/12/2018 1:30 5.0 89 0.0 0 0.0 2.6 9.3 301
07/12/2018 1:40 4.9 87 0.0 0 0.0 3.2 11.6 296
07/12/2018 1:50 4.9 87 0.0 0 0.0 3.2 11.4 304
07/12/2018 2:00 4.9 86 0.0 0 0.0 3.6 13.0 307
07/12/2018 2:10 4.9 85 0.0 0 0.0 2.3 8.2 293
07/12/2018 2:20 4.7 85 0.0 0 0.0 2.9 10.6 291
07/12/2018 2:30 4.8 85 0.0 0 0.0 3.1 11.1 304
07/12/2018 2:40 4.7 85 0.0 0 0.0 2.4 8.8 310
07/12/2018 2:50 4.5 86 0.0 0 0.0 2.2 7.8 301
07/12/2018 3:00 4.4 87 0.0 0 0.0 2.1 7.6 262
07/12/2018 3:10 4.1 88 0.0 0 0.0 2.2 7.8 257
07/12/2018 3:20 3.7 89 0.0 0 0.0 1.9 6.8 271
07/12/2018 3:30 3.7 90 0.0 0 0.0 1.7 6.1 292
07/12/2018 3:40 3.9 90 0.0 0 0.0 1.2 4.4 302
07/12/2018 3:50 3.6 90 0.0 0 0.0 1.5 5.5 300
07/12/2018 4:00 3.5 91 0.0 0 0.0 0.6 2.2 283
07/12/2018 4:10 3.5 91 0.0 0 0.0 1.5 5.5 317
07/12/2018 4:20 3.8 91 0.0 0 0.0 1.7 6.0 298
07/12/2018 4:30 3.9 90 0.0 0 0.0 1.4 4.9 231
07/12/2018 4:40 4.0 89 0.0 0 0.0 1.2 4.4 294
07/12/2018 4:50 3.6 90 0.0 0 0.0 1.5 5.3 274
07/12/2018 5:00 3.6 92 0.0 0 0.0 1.3 4.5 273
07/12/2018 5:10 3.5 91 0.0 0 0.0 1.5 5.4 295
07/12/2018 5:20 3.8 91 0.0 0 0.0 1.7 6.2 306
07/12/2018 5:30 4.0 91 0.0 0 0.0 2.2 7.7 290
07/12/2018 5:40 3.9 89 0.0 0 0.0 2.6 9.3 258
07/12/2018 5:50 3.9 89 0.0 0 0.0 2.1 7.5 265
07/12/2018 6:00 3.6 90 0.0 0 0.0 2.0 7.3 286
07/12/2018 6:10 4.0 90 0.0 0 0.0 2.0 7.3 298
07/12/2018 6:20 4.1 89 0.0 0 0.0 2.2 7.8 295
07/12/2018 6:30 4.0 89 0.0 0 0.0 1.8 6.4 299
07/12/2018 6:40 4.0 89 0.0 0 0.0 1.3 4.8 308
07/12/2018 6:50 3.3 89 0.0 0 0.0 0.9 3.4 30
07/12/2018 7:00 3.2 92 0.0 0 0.0 0.6 2.3 147
07/12/2018 7:10 3.4 91 0.0 0 0.0 0.5 1.8 330
07/12/2018 7:20 3.6 90 0.0 0 0.0 0.8 2.8 328
07/12/2018 7:30 3.7 89 0.0 0 0.0 0.6 2.2 325
07/12/2018 7:40 3.8 88 0.0 0 0.0 1.4 5.1 260
07/12/2018 7:50 3.9 87 14.9 0 0.0 1.8 6.4 283
07/12/2018 8:00 4.1 86 42.5 428 0.0 3.0 10.6 305
07/12/2018 8:10 4.6 84 73.2 600 0.0 2.3 8.2 302
07/12/2018 8:20 4.7 84 95.1 600 0.0 2.5 9.1 306
07/12/2018 8:30 4.6 84 118.8 600 0.0 3.1 11.1 317
07/12/2018 8:40 4.4 85 142.9 600 0.0 1.7 6.2 310
07/12/2018 8:50 4.8 83 165.7 600 0.0 1.7 6.0 307
07/12/2018 9:00 5.4 81 188.2 600 0.0 0.7 2.5 277
07/12/2018 9:10 6.0 78 210.7 600 0.0 1.3 4.6 266
07/12/2018 9:20 6.0 77 234.7 600 0.0 2.3 8.4 313
07/12/2018 9:30 6.4 77 259.0 600 0.0 0.6 2.1 246
07/12/2018 9:40 6.8 73 280.5 600 0.0 1.7 6.3 306
07/12/2018 9:50 6.9 73 305.3 600 0.0 2.8 10.1 307
07/12/2018 10:00 6.5 75 304.3 600 0.0 3.7 13.2 314
07/12/2018 10:10 6.9 76 342.9 600 0.0 1.9 6.9 295
07/12/2018 10:20 7.4 75 358.7 600 0.0 2.7 9.7 296
07/12/2018 10:30 7.6 73 373.7 600 0.0 2.8 9.9 305
07/12/2018 10:40 7.6 73 387.7 600 0.0 2.8 10.1 307
07/12/2018 10:50 8.0 73 399.2 600 0.0 1.9 6.7 309
07/12/2018 11:00 8.6 71 409.0 600 0.0 2.3 8.1 312
07/12/2018 11:10 8.4 71 418.0 600 0.0 4.5 16.3 314
07/12/2018 11:20 8.5 72 425.2 600 0.0 4.7 17.0 312
07/12/2018 11:30 8.8 71 430.1 600 0.0 3.9 13.9 304
07/12/2018 11:40 9.0 71 432.9 600 0.0 2.9 10.5 297
07/12/2018 11:50 9.5 70 434.0 600 0.0 3.0 10.9 304
07/12/2018 12:00 9.6 69 434.1 600 0.0 3.5 12.6 309
07/12/2018 12:10 9.7 67 433.4 600 0.0 4.1 14.7 312
07/12/2018 12:20 9.9 68 432.3 600 0.0 3.4 12.1 304
07/12/2018 12:30 10.2 67 429.6 600 0.0 3.6 12.8 294
07/12/2018 12:40 10.2 67 425.9 600 0.0 3.7 13.2 308
07/12/2018 12:50 10.1 68 419.7 600 0.0 4.5 16.1 304
07/12/2018 13:00 10.1 69 412.7 600 0.0 5.1 18.3 303
07/12/2018 13:10 10.1 69 406.8 600 0.0 5.7 20.6 325
07/12/2018 13:20 10.0 69 397.0 600 0.0 5.8 20.8 312
07/12/2018 13:30 10.1 69 384.1 600 0.0 7.0 25.2 319
07/12/2018 13:40 9.9 69 370.9 600 0.0 8.0 28.8 317
07/12/2018 13:50 9.6 70 355.1 600 0.0 5.8 20.7 304
07/12/2018 14:00 9.9 70 338.3 600 0.0 5.0 18.1 306
07/12/2018 14:10 9.7 70 322.1 600 0.0 5.1 18.5 314
07/12/2018 14:20 9.8 70 301.2 600 0.0 5.4 19.4 310
07/12/2018 14:30 9.9 70 282.1 600 0.0 5.3 18.9 317
07/12/2018 14:40 9.7 70 259.5 600 0.0 4.5 16.2 314
07/12/2018 14:50 9.9 70 237.9 600 0.0 4.0 14.2 303
07/12/2018 15:00 10.1 68 216.3 600 0.0 2.9 10.5 298
07/12/2018 15:10 10.1 68 220.8 600 0.0 3.6 12.8 309
07/12/2018 15:20 10.1 68 185.9 504 0.0 3.5 12.5 313
07/12/2018 15:30 9.9 68 54.2 0 0.0 4.1 14.9 305
07/12/2018 15:40 9.8 70 43.5 0 0.0 4.0 14.5 308
07/12/2018 15:50 9.7 70 35.4 0 0.0 3.0 10.8 298
07/12/2018 16:00 9.7 71 24.2 0 0.0 2.7 9.6 296
07/12/2018 16:10 9.7 71 20.3 0 0.0 3.7 13.1 291
07/12/2018 16:20 9.6 70 8.3 0 0.0 4.3 15.6 302
07/12/2018 16:30 9.5 72 0.0 0 0.0 5.3 19.2 318
07/12/2018 16:40 9.3 73 0.0 0 0.0 4.0 14.5 306
07/12/2018 16:50 9.3 74 0.0 0 0.0 3.0 10.9 305
07/12/2018 17:00 9.3 75 0.0 0 0.0 4.0 14.2 285
07/12/2018 17:10 9.1 75 0.0 0 0.0 3.9 14.0 302
07/12/2018 17:20 9.1 75 0.0 0 0.0 4.2 15.0 303
07/12/2018 17:30 9.0 75 0.0 0 0.0 3.3 12.0 303
07/12/2018 17:40 9.0 76 0.0 0 0.0 3.5 12.6 306
07/12/2018 17:50 8.8 77 0.0 0 0.0 2.6 9.5 298
07/12/2018 18:00 8.6 78 0.0 0 0.0 2.7 9.6 312
07/12/2018 18:10 8.6 79 0.0 0 0.0 2.7 9.8 299
07/12/2018 18:20 8.6 79 0.0 0 0.0 2.6 9.5 303
07/12/2018 18:30 8.5 80 0.0 0 0.0 3.0 10.7 309
07/12/2018 18:40 8.5 80 0.0 0 0.0 3.8 13.6 300
07/12/2018 18:50 8.5 81 0.0 0 0.0 3.3 11.7 302
07/12/2018 19:00 8.4 81 0.0 0 0.0 2.9 10.5 301
07/12/2018 19:10 8.4 82 0.0 0 0.0 3.1 11.3 288
07/12/2018 19:20 8.5 81 0.0 0 0.0 3.3 11.7 303
07/12/2018 19:30 8.5 81 0.0 0 0.0 3.5 12.5 305
07/12/2018 19:40 8.3 82 0.0 0 0.0 3.8 13.5 301
07/12/2018 19:50 8.3 82 0.0 0 0.0 4.2 15.0 302
07/12/2018 20:00 8.0 86 0.0 0 0.0 4.1 14.7 305
07/12/2018 20:10 7.4 92 0.0 0 0.0 4.5 16.3 313
07/12/2018 20:20 7.2 94 0.0 0 0.1 4.3 15.4 312
07/12/2018 20:30 7.1 95 0.0 0 0.0 4.3 15.5 287
07/12/2018 20:40 7.2 95 0.0 0 0.0 4.5 16.0 285
07/12/2018 20:50 7.3 95 0.0 0 0.0 3.8 13.6 285
07/12/2018 21:00 7.3 95 0.0 0 0.0 4.6 16.5 296
07/12/2018 21:10 7.4 95 0.0 0 0.1 4.1 14.7 296
07/12/2018 21:20 7.3 95 0.0 0 0.0 3.9 13.9 306
07/12/2018 21:30 7.3 95 0.0 0 0.1 4.9 17.7 322
07/12/2018 21:40 7.3 93 0.0 0 0.0 6.8 24.4 327
07/12/2018 21:50 7.4 91 0.0 0 0.0 4.6 16.4 317
07/12/2018 22:00 7.2 92 0.0 0 0.0 4.8 17.4 324
07/12/2018 22:10 7.0 93 0.0 0 0.0 5.5 19.9 321
07/12/2018 22:20 6.8 93 0.0 0 0.0 5.9 21.1 319
07/12/2018 22:30 6.7 93 0.0 0 0.0 6.5 23.4 334
07/12/2018 22:40 6.7 92 0.0 0 0.0 6.7 24.1 327
07/12/2018 22:50 6.9 90 0.0 0 0.0 6.0 21.5 320
07/12/2018 23:00 6.9 89 0.0 0 0.0 4.5 16.3 320
07/12/2018 23:10 6.9 87 0.0 0 0.0 4.4 15.7 312
07/12/2018 23:20 7.0 86 0.0 0 0.0 4.5 16.1 304
07/12/2018 23:30 6.8 86 0.0 0 0.0 4.2 15.0 297
07/12/2018 23:40 6.9 86 0.0 0 0.0 3.4 12.2 307
07/12/2018 23:50 6.9 86 0.0 0 0.0 3.5 12.4 303
Anterior Página 1 de 1 Siguiente

NOTA: Tipo de datos según el color:
   - Valores diarios o 10 minutos correctos
   - Valores diarios calculados a partir de un número de datos 10 minutos menor que 144 y mayor que 120, o de un número de datos semihorarios menor que 48 y mayor que 40 (caso de las estaciones de Riegos de Navarra y del MARM)
   - Valores diez minutos estimados


Contacto        Enlaces        Aviso legal